Time;durP1;ratioP1;P1;durP2;ratioP2;P2;SDS_P1;SDS_P2;PMS_P1;PMS_P2;Temp;Humidity;BMP_temperature;BMP_pressure;BME280_temperature;BME280_humidity;BME280_pressure;Samples;Min_cycle;Max_cycle;Signal;HPM_P1;HPM_P2
2023/07/14 00:00:16;;;;;;;5.22;2.67;;;;;;;;;;5102057;27;20044;-52
2023/07/14 00:02:42;;;;;;;9.77;2.77;;;;;;;;;;5099272;27;20127;-52
2023/07/14 00:05:13;;;;;;;9.70;3.47;;;;;;;;;;5101907;27;20047;-52
2023/07/14 00:07:39;;;;;;;5.18;2.63;;;;;;;;;;5095220;27;20054;-53
2023/07/14 00:10:16;;;;;;;8.35;2.72;;;;;;;;;;5097753;27;20047;-52
2023/07/14 00:12:42;;;;;;;6.65;2.83;;;;;;;;;;5094496;27;20615;-52
2023/07/14 00:15:08;;;;;;;7.57;3.30;;;;;;;;;;5091439;27;20112;-52
2023/07/14 00:17:34;;;;;;;8.25;3.40;;;;;;;;;;5092396;27;20047;-52
2023/07/14 00:20:00;;;;;;;7.10;2.97;;;;;;;;;;5091578;27;20447;-52
2023/07/14 00:22:26;;;;;;;5.35;2.78;;;;;;;;;;5096228;27;20384;-52
2023/07/14 00:24:52;;;;;;;9.82;3.92;;;;;;;;;;5094152;27;20044;-52
2023/07/14 00:27:20;;;;;;;9.35;4.45;;;;;;;;;;5097814;27;20038;-52
2023/07/14 00:29:46;;;;;;;13.80;5.15;;;;;;;;;;5094964;27;20519;-52
2023/07/14 00:32:22;;;;;;;10.35;4.90;;;;;;;;;;5091536;27;20036;-52
2023/07/14 00:34:49;;;;;;;12.35;5.60;;;;;;;;;;5095817;27;20590;-52
2023/07/14 00:37:15;;;;;;;14.15;4.88;;;;;;;;;;5098490;27;20071;-52
2023/07/14 00:39:41;;;;;;;9.93;3.85;;;;;;;;;;5097338;27;20036;-52
2023/07/14 00:42:11;;;;;;;10.18;4.50;;;;;;;;;;5099367;27;20040;-53
2023/07/14 00:44:37;;;;;;;10.07;4.05;;;;;;;;;;5100650;27;20048;-52
2023/07/14 00:47:05;;;;;;;7.00;3.53;;;;;;;;;;5095730;27;20044;-52
2023/07/14 00:49:32;;;;;;;9.82;3.80;;;;;;;;;;5100290;27;20071;-52
2023/07/14 00:52:00;;;;;;;5.25;2.90;;;;;;;;;;5102675;27;20053;-52
2023/07/14 00:54:27;;;;;;;6.07;2.95;;;;;;;;;;5099224;27;20119;-52
2023/07/14 00:56:55;;;;;;;8.55;3.58;;;;;;;;;;5099652;27;20040;-52
2023/07/14 00:59:22;;;;;;;6.82;3.28;;;;;;;;;;5101494;27;20094;-52
2023/07/14 01:02:07;;;;;;;7.43;2.85;;;;;;;;;;5101674;27;20664;-52
2023/07/14 01:04:33;;;;;;;4.93;3.28;;;;;;;;;;5099875;27;20048;-52
2023/07/14 01:06:59;;;;;;;8.43;3.78;;;;;;;;;;5100295;27;20070;-52
2023/07/14 01:09:25;;;;;;;7.35;3.25;;;;;;;;;;5095236;27;20106;-52
2023/07/14 01:11:52;;;;;;;5.70;2.95;;;;;;;;;;5096809;27;20545;-52
2023/07/14 01:14:27;;;;;;;6.00;2.50;;;;;;;;;;5099312;27;20135;-52
2023/07/14 01:16:54;;;;;;;10.30;3.00;;;;;;;;;;5101140;27;20043;-52
2023/07/14 01:19:28;;;;;;;9.68;2.50;;;;;;;;;;5098758;27;20032;-52
2023/07/14 01:21:58;;;;;;;7.05;2.42;;;;;;;;;;5091855;27;20071;-52
2023/07/14 01:24:31;;;;;;;5.60;2.67;;;;;;;;;;5096199;27;20047;-52
2023/07/14 01:26:58;;;;;;;7.57;2.75;;;;;;;;;;5094633;27;20044;-52
2023/07/14 01:29:25;;;;;;;7.03;2.33;;;;;;;;;;5101858;27;20153;-52
2023/07/14 01:31:51;;;;;;;6.75;2.50;;;;;;;;;;5089947;27;20048;-52
2023/07/14 01:34:17;;;;;;;6.72;2.97;;;;;;;;;;5098486;27;20044;-52
2023/07/14 01:36:44;;;;;;;4.95;2.00;;;;;;;;;;5099083;27;20121;-52
2023/07/14 01:39:11;;;;;;;7.43;3.08;;;;;;;;;;5099113;27;20048;-52
2023/07/14 01:41:37;;;;;;;3.65;1.77;;;;;;;;;;5085220;27;20047;-52
2023/07/14 01:44:05;;;;;;;5.13;1.88;;;;;;;;;;5103279;27;20040;-52
2023/07/14 01:46:31;;;;;;;4.95;2.85;;;;;;;;;;5102956;27;20051;-52
2023/07/14 01:48:57;;;;;;;4.85;2.70;;;;;;;;;;5103483;27;20036;-52
2023/07/14 01:51:24;;;;;;;5.32;2.63;;;;;;;;;;5102586;27;20127;-51
2023/07/14 01:54:10;;;;;;;5.55;2.45;;;;;;;;;;5083159;28;20562;-51
2023/07/14 01:56:36;;;;;;;6.70;2.55;;;;;;;;;;5043536;27;20056;-52
2023/07/14 01:59:08;;;;;;;5.45;2.72;;;;;;;;;;5101696;27;20036;-52
2023/07/14 02:01:36;;;;;;;6.75;2.75;;;;;;;;;;5102957;27;20158;-52
2023/07/14 02:04:04;;;;;;;8.00;3.03;;;;;;;;;;5102869;27;20337;-52
2023/07/14 02:06:31;;;;;;;6.60;3.42;;;;;;;;;;5102787;27;20628;-52
2023/07/14 02:08:58;;;;;;;8.68;3.55;;;;;;;;;;5102530;27;20044;-52
2023/07/14 02:11:25;;;;;;;6.28;3.05;;;;;;;;;;5099121;27;20036;-52
2023/07/14 02:13:52;;;;;;;6.88;3.70;;;;;;;;;;5084713;27;20044;-52
2023/07/14 02:16:19;;;;;;;5.55;2.47;;;;;;;;;;5100610;27;20114;-51
2023/07/14 02:18:46;;;;;;;12.68;3.40;;;;;;;;;;5102221;27;20494;-52
2023/07/14 02:21:13;;;;;;;9.43;4.28;;;;;;;;;;5102510;27;20094;-52
2023/07/14 02:23:40;;;;;;;5.97;2.78;;;;;;;;;;5101886;27;20904;-52
2023/07/14 02:26:07;;;;;;;10.20;3.42;;;;;;;;;;5101129;27;21148;-52
2023/07/14 02:28:33;;;;;;;8.07;3.75;;;;;;;;;;5101937;27;20131;-52
2023/07/14 02:31:12;;;;;;;7.78;2.80;;;;;;;;;;5082983;27;20040;-52
2023/07/14 02:33:40;;;;;;;13.10;3.92;;;;;;;;;;5098258;27;20052;-52
2023/07/14 02:36:32;;;;;;;6.63;4.05;;;;;;;;;;5100920;27;20072;-52
2023/07/14 02:39:01;;;;;;;5.47;3.25;;;;;;;;;;5097308;27;20132;-52
2023/07/14 02:41:29;;;;;;;9.07;4.22;;;;;;;;;;5084132;27;20132;-52
2023/07/14 02:43:58;;;;;;;8.23;3.38;;;;;;;;;;5102596;27;20127;-52
2023/07/14 02:46:27;;;;;;;7.80;3.50;;;;;;;;;;5102017;27;20040;-52
2023/07/14 02:48:53;;;;;;;10.05;4.05;;;;;;;;;;5102265;27;20044;-52
2023/07/14 02:51:19;;;;;;;9.48;3.72;;;;;;;;;;5085977;28;20153;-52
2023/07/14 02:53:45;;;;;;;6.93;2.80;;;;;;;;;;5103867;27;20041;-52
2023/07/14 02:56:12;;;;;;;9.93;4.35;;;;;;;;;;5101333;27;20075;-52
2023/07/14 02:58:38;;;;;;;7.38;3.00;;;;;;;;;;5101491;27;20036;-52
2023/07/14 03:01:05;;;;;;;6.65;3.30;;;;;;;;;;5100699;27;20040;-52
2023/07/14 03:03:33;;;;;;;12.07;3.15;;;;;;;;;;5100597;27;20044;-52
2023/07/14 03:05:59;;;;;;;6.03;3.35;;;;;;;;;;5099345;27;20051;-51
2023/07/14 03:08:28;;;;;;;8.20;3.17;;;;;;;;;;5099615;27;20072;-52
2023/07/14 03:10:58;;;;;;;7.78;2.97;;;;;;;;;;5100677;27;20036;-52
2023/07/14 03:13:24;;;;;;;6.47;2.58;;;;;;;;;;5098968;27;20657;-52
2023/07/14 03:15:50;;;;;;;4.80;2.85;;;;;;;;;;5098260;27;20044;-51
2023/07/14 03:18:16;;;;;;;6.15;3.10;;;;;;;;;;5099390;27;20036;-52
2023/07/14 03:20:43;;;;;;;7.00;3.42;;;;;;;;;;5097912;27;20522;-52
2023/07/14 03:23:09;;;;;;;8.10;3.47;;;;;;;;;;5098999;27;20435;-52
2023/07/14 03:25:35;;;;;;;8.98;2.80;;;;;;;;;;5098077;27;20049;-51
2023/07/14 03:28:02;;;;;;;11.43;3.25;;;;;;;;;;5084063;28;20569;-52
2023/07/14 03:30:28;;;;;;;7.43;3.00;;;;;;;;;;5095433;27;20067;-51
2023/07/14 03:32:54;;;;;;;5.95;2.70;;;;;;;;;;5099889;27;20566;-52
2023/07/14 03:35:20;;;;;;;5.45;2.80;;;;;;;;;;5098070;27;20113;-51
2023/07/14 03:37:47;;;;;;;6.90;3.13;;;;;;;;;;5101338;27;20485;-51
2023/07/14 03:40:13;;;;;;;8.88;3.22;;;;;;;;;;5095386;27;20102;-52
2023/07/14 03:42:41;;;;;;;5.60;2.95;;;;;;;;;;5080549;28;20044;-52
2023/07/14 03:45:07;;;;;;;11.57;4.03;;;;;;;;;;5096466;27;20040;-51
2023/07/14 03:47:36;;;;;;;6.78;3.25;;;;;;;;;;5099695;27;20040;-52
2023/07/14 03:50:02;;;;;;;6.22;4.10;;;;;;;;;;5097545;27;20048;-51
2023/07/14 03:52:28;;;;;;;5.95;2.65;;;;;;;;;;5096259;27;20089;-51
2023/07/14 03:54:54;;;;;;;8.45;3.00;;;;;;;;;;5102463;27;20124;-52
2023/07/14 03:57:20;;;;;;;6.32;3.30;;;;;;;;;;5093288;27;20131;-51
2023/07/14 03:59:46;;;;;;;9.68;4.93;;;;;;;;;;5097828;27;20036;-51
2023/07/14 04:02:12;;;;;;;8.98;3.15;;;;;;;;;;5096817;27;20075;-52
2023/07/14 04:04:38;;;;;;;8.40;3.85;;;;;;;;;;5099595;27;20916;-51
2023/07/14 04:07:05;;;;;;;9.48;3.58;;;;;;;;;;5096111;27;20056;-51
2023/07/14 04:09:31;;;;;;;4.05;2.28;;;;;;;;;;5082941;27;20040;-51
2023/07/14 04:11:57;;;;;;;5.68;3.58;;;;;;;;;;5099022;27;20048;-52
2023/07/14 04:14:23;;;;;;;8.88;3.28;;;;;;;;;;5096630;27;20051;-52
2023/07/14 04:16:49;;;;;;;6.57;2.80;;;;;;;;;;5100115;27;20044;-52
2023/07/14 04:19:15;;;;;;;7.10;3.53;;;;;;;;;;5092901;27;20455;-51
2023/07/14 04:21:41;;;;;;;9.23;3.28;;;;;;;;;;5100069;27;20048;-52
2023/07/14 04:24:08;;;;;;;4.63;2.60;;;;;;;;;;5097205;27;20539;-51
2023/07/14 04:26:34;;;;;;;7.63;4.05;;;;;;;;;;5099650;27;20036;-52
2023/07/14 04:29:00;;;;;;;10.63;3.15;;;;;;;;;;5096832;27;20036;-51
2023/07/14 04:31:28;;;;;;;9.80;3.90;;;;;;;;;;5097716;27;20130;-52
2023/07/14 04:33:54;;;;;;;7.18;3.08;;;;;;;;;;5097049;27;20550;-52
2023/07/14 04:36:21;;;;;;;6.50;3.13;;;;;;;;;;5098601;27;20043;-51
2023/07/14 04:39:01;;;;;;;7.00;3.35;;;;;;;;;;5097848;27;20050;-51
2023/07/14 04:41:27;;;;;;;7.43;3.65;;;;;;;;;;5095742;27;20126;-52
2023/07/14 04:43:53;;;;;;;9.07;3.22;;;;;;;;;;5097798;27;20117;-52
2023/07/14 04:46:19;;;;;;;5.72;3.15;;;;;;;;;;5094465;27;20087;-52
2023/07/14 04:48:46;;;;;;;7.22;3.22;;;;;;;;;;5101656;27;20133;-51
2023/07/14 04:51:12;;;;;;;5.70;3.08;;;;;;;;;;5100975;27;20046;-52
2023/07/14 04:53:38;;;;;;;12.75;4.38;;;;;;;;;;5101959;27;20506;-52
2023/07/14 04:56:04;;;;;;;6.35;3.25;;;;;;;;;;5097195;27;20043;-51
2023/07/14 04:58:30;;;;;;;7.30;3.33;;;;;;;;;;5102148;27;20048;-51
2023/07/14 05:00:56;;;;;;;7.55;3.75;;;;;;;;;;5101581;27;20093;-52
2023/07/14 05:03:23;;;;;;;7.53;3.22;;;;;;;;;;5100130;27;20044;-52
2023/07/14 05:05:49;;;;;;;5.55;3.00;;;;;;;;;;5101879;27;20044;-51
2023/07/14 05:08:15;;;;;;;9.95;3.90;;;;;;;;;;5100377;27;20051;-51
2023/07/14 05:10:41;;;;;;;8.35;3.65;;;;;;;;;;5098916;27;20036;-52
2023/07/14 05:13:07;;;;;;;6.65;3.08;;;;;;;;;;5100649;27;20043;-52
2023/07/14 05:15:33;;;;;;;14.68;4.25;;;;;;;;;;5103358;27;20067;-52
2023/07/14 05:18:00;;;;;;;7.45;3.75;;;;;;;;;;5100847;27;20037;-51
2023/07/14 05:20:26;;;;;;;5.28;2.70;;;;;;;;;;5101947;27;20040;-51
2023/07/14 05:22:53;;;;;;;10.68;3.30;;;;;;;;;;5103373;27;20659;-51
2023/07/14 05:25:19;;;;;;;9.85;3.88;;;;;;;;;;5105668;27;20055;-52
2023/07/14 05:27:45;;;;;;;8.23;3.30;;;;;;;;;;5103555;27;20040;-52
2023/07/14 05:30:14;;;;;;;9.85;3.70;;;;;;;;;;5104556;27;20510;-52
2023/07/14 05:32:41;;;;;;;5.90;3.33;;;;;;;;;;5085439;28;20475;-51
2023/07/14 05:35:07;;;;;;;13.15;3.88;;;;;;;;;;5102766;27;20043;-51
2023/07/14 05:37:33;;;;;;;11.95;4.15;;;;;;;;;;5104506;27;20051;-52
2023/07/14 05:39:59;;;;;;;7.78;3.28;;;;;;;;;;5100214;27;20055;-52
2023/07/14 05:42:25;;;;;;;7.53;3.70;;;;;;;;;;5085275;27;20102;-51
2023/07/14 05:44:51;;;;;;;6.75;3.97;;;;;;;;;;5101120;27;20522;-52
2023/07/14 05:47:17;;;;;;;6.60;3.55;;;;;;;;;;5101316;27;20048;-51
2023/07/14 05:49:43;;;;;;;8.95;3.63;;;;;;;;;;5096529;27;20048;-51
2023/07/14 05:52:10;;;;;;;11.32;4.07;;;;;;;;;;5101245;27;20056;-52
2023/07/14 05:54:37;;;;;;;9.82;3.70;;;;;;;;;;5102583;27;20561;-51
2023/07/14 05:57:03;;;;;;;9.93;3.80;;;;;;;;;;5104825;27;20040;-52
2023/07/14 05:59:29;;;;;;;9.27;3.42;;;;;;;;;;5100910;27;20075;-51
2023/07/14 06:01:55;;;;;;;8.18;4.30;;;;;;;;;;5103453;27;20051;-52
2023/07/14 06:04:21;;;;;;;9.90;4.55;;;;;;;;;;5103511;27;20053;-52
2023/07/14 06:06:47;;;;;;;9.30;3.28;;;;;;;;;;5101949;27;20047;-51
2023/07/14 06:09:14;;;;;;;9.05;3.58;;;;;;;;;;5084567;28;20048;-52
2023/07/14 06:11:44;;;;;;;8.88;3.50;;;;;;;;;;5103303;27;20139;-52
2023/07/14 06:14:11;;;;;;;8.82;3.35;;;;;;;;;;5104773;27;20044;-52
2023/07/14 06:16:37;;;;;;;4.90;2.90;;;;;;;;;;5104535;27;20043;-52
2023/07/14 06:19:03;;;;;;;11.35;3.88;;;;;;;;;;5103534;27;20089;-52
2023/07/14 06:21:29;;;;;;;4.30;2.90;;;;;;;;;;5102593;27;20048;-52
2023/07/14 06:23:56;;;;;;;5.75;3.10;;;;;;;;;;5103898;27;20372;-52
2023/07/14 06:26:22;;;;;;;4.25;3.05;;;;;;;;;;5083906;28;20051;-51
2023/07/14 06:28:48;;;;;;;6.32;2.90;;;;;;;;;;5102439;27;20040;-52
2023/07/14 06:31:14;;;;;;;7.05;3.33;;;;;;;;;;5102349;27;20039;-51
2023/07/14 06:33:41;;;;;;;5.20;3.00;;;;;;;;;;5105798;27;20066;-52
2023/07/14 06:36:07;;;;;;;5.65;2.63;;;;;;;;;;5103150;27;20040;-52
2023/07/14 06:38:34;;;;;;;9.60;2.95;;;;;;;;;;5100040;27;20040;-52
2023/07/14 06:41:01;;;;;;;7.57;3.85;;;;;;;;;;5098903;27;20067;-52
2023/07/14 06:43:27;;;;;;;5.80;2.08;;;;;;;;;;5102382;27;20495;-52
2023/07/14 06:45:54;;;;;;;4.55;2.47;;;;;;;;;;5103390;27;20075;-52
2023/07/14 06:48:21;;;;;;;5.10;2.35;;;;;;;;;;5104432;27;20049;-52
2023/07/14 06:50:47;;;;;;;5.00;2.60;;;;;;;;;;5101929;27;20093;-52
2023/07/14 06:53:13;;;;;;;4.05;2.33;;;;;;;;;;5102729;27;20055;-53
2023/07/14 06:55:40;;;;;;;5.47;2.60;;;;;;;;;;5102945;27;20036;-52
2023/07/14 06:58:07;;;;;;;3.88;2.20;;;;;;;;;;5097951;27;20051;-52
2023/07/14 07:00:34;;;;;;;4.97;2.50;;;;;;;;;;5103303;27;20036;-51
2023/07/14 07:03:03;;;;;;;8.65;2.40;;;;;;;;;;5100459;27;20054;-52
2023/07/14 07:05:30;;;;;;;11.27;2.53;;;;;;;;;;5101904;27;20044;-52
2023/07/14 07:07:56;;;;;;;5.43;2.10;;;;;;;;;;5102953;27;20040;-52
2023/07/14 07:10:22;;;;;;;3.42;2.33;;;;;;;;;;5099315;27;20044;-51
2023/07/14 07:12:48;;;;;;;6.03;2.55;;;;;;;;;;5100943;27;20071;-52
2023/07/14 07:15:15;;;;;;;5.35;2.38;;;;;;;;;;5086485;28;20969;-52
2023/07/14 07:17:43;;;;;;;4.72;2.60;;;;;;;;;;5103295;27;20067;-52
2023/07/14 07:20:09;;;;;;;6.38;2.70;;;;;;;;;;5100357;27;20047;-52
2023/07/14 07:22:36;;;;;;;5.53;2.58;;;;;;;;;;5102641;27;20093;-52
2023/07/14 07:25:02;;;;;;;6.18;2.00;;;;;;;;;;5102609;27;20051;-52
2023/07/14 07:27:28;;;;;;;4.55;2.10;;;;;;;;;;5100782;27;20044;-52
2023/07/14 07:29:55;;;;;;;8.68;3.85;;;;;;;;;;5098256;27;20040;-52
2023/07/14 07:32:21;;;;;;;5.03;2.00;;;;;;;;;;5102616;27;20531;-52
2023/07/14 07:34:47;;;;;;;4.30;1.88;;;;;;;;;;5102496;27;20514;-52
2023/07/14 07:37:14;;;;;;;3.67;1.80;;;;;;;;;;5102388;27;20103;-52
2023/07/14 07:39:40;;;;;;;3.97;2.25;;;;;;;;;;5100829;27;20134;-52
2023/07/14 07:42:07;;;;;;;4.85;2.20;;;;;;;;;;5100629;27;20121;-52
2023/07/14 07:44:33;;;;;;;3.13;1.98;;;;;;;;;;5098540;27;21690;-52
2023/07/14 07:47:00;;;;;;;6.30;2.15;;;;;;;;;;5101611;27;20044;-52
2023/07/14 07:49:26;;;;;;;4.88;2.35;;;;;;;;;;5097894;27;20036;-52
2023/07/14 07:51:52;;;;;;;7.97;2.22;;;;;;;;;;5102234;27;20047;-52
2023/07/14 07:54:18;;;;;;;3.63;2.05;;;;;;;;;;5098877;27;20032;-52
2023/07/14 07:56:45;;;;;;;3.88;1.50;;;;;;;;;;5097232;27;20115;-51
2023/07/14 07:59:11;;;;;;;4.00;2.38;;;;;;;;;;5097556;27;20213;-52
2023/07/14 08:01:37;;;;;;;3.30;1.58;;;;;;;;;;5096534;27;20074;-52
2023/07/14 08:04:04;;;;;;;3.47;2.38;;;;;;;;;;5095444;27;20635;-52
2023/07/14 08:06:30;;;;;;;5.45;1.67;;;;;;;;;;5094048;27;20046;-52
2023/07/14 08:08:58;;;;;;;3.63;1.85;;;;;;;;;;5091095;27;20174;-52
2023/07/14 08:11:24;;;;;;;3.28;1.88;;;;;;;;;;5094065;27;20198;-52
2023/07/14 08:13:50;;;;;;;3.60;1.80;;;;;;;;;;5092895;27;20040;-52
2023/07/14 08:16:17;;;;;;;3.55;1.95;;;;;;;;;;5091333;27;20048;-52
2023/07/14 08:18:43;;;;;;;3.55;1.63;;;;;;;;;;5092050;27;20094;-52
2023/07/14 08:21:09;;;;;;;2.80;1.50;;;;;;;;;;5094304;27;20094;-52
2023/07/14 08:23:36;;;;;;;2.95;1.65;;;;;;;;;;5092433;27;20522;-52
2023/07/14 08:26:04;;;;;;;3.53;1.60;;;;;;;;;;5095383;27;20177;-52
2023/07/14 08:28:31;;;;;;;3.58;1.88;;;;;;;;;;5094789;27;20043;-52
2023/07/14 08:31:00;;;;;;;4.85;2.42;;;;;;;;;;5097201;27;20036;-52
2023/07/14 08:33:26;;;;;;;4.13;2.30;;;;;;;;;;5091506;27;20569;-52
2023/07/14 08:35:52;;;;;;;6.18;2.03;;;;;;;;;;5094253;27;20051;-52
2023/07/14 08:38:19;;;;;;;2.63;1.85;;;;;;;;;;5094085;27;20089;-52
2023/07/14 08:41:06;;;;;;;4.88;1.80;;;;;;;;;;5095920;27;20574;-52
2023/07/14 08:43:41;;;;;;;2.65;1.33;;;;;;;;;;5092674;27;20036;-52
2023/07/14 08:46:10;;;;;;;2.17;1.55;;;;;;;;;;5094316;27;20045;-52
2023/07/14 08:48:37;;;;;;;3.63;1.52;;;;;;;;;;5091756;27;20101;-52
2023/07/14 08:51:13;;;;;;;4.05;1.40;;;;;;;;;;5093251;27;20131;-52
2023/07/14 08:53:39;;;;;;;3.45;1.27;;;;;;;;;;5089239;27;20068;-52
2023/07/14 08:56:06;;;;;;;3.22;1.48;;;;;;;;;;5090968;27;20101;-52
2023/07/14 08:58:36;;;;;;;2.70;1.42;;;;;;;;;;5093823;27;20044;-52
2023/07/14 09:01:22;;;;;;;4.68;1.35;;;;;;;;;;5091114;27;20040;-51
2023/07/14 09:03:51;;;;;;;3.17;1.52;;;;;;;;;;5090380;27;20037;-52
2023/07/14 09:06:17;;;;;;;4.55;2.13;;;;;;;;;;5094628;27;20044;-52
2023/07/14 09:08:44;;;;;;;3.88;1.48;;;;;;;;;;5092675;27;20056;-52
2023/07/14 09:11:16;;;;;;;2.95;1.50;;;;;;;;;;5078420;27;20055;-52
2023/07/14 09:13:49;;;;;;;2.13;1.20;;;;;;;;;;5092371;27;20040;-52
2023/07/14 09:16:18;;;;;;;4.90;1.88;;;;;;;;;;5095167;27;20100;-52
2023/07/14 09:19:07;;;;;;;6.70;1.70;;;;;;;;;;5095327;27;20057;-52
2023/07/14 09:21:39;;;;;;;4.85;1.50;;;;;;;;;;5093397;27;20555;-52
2023/07/14 09:24:31;;;;;;;4.75;1.90;;;;;;;;;;5093629;27;20043;-52
2023/07/14 09:26:57;;;;;;;1.98;1.40;;;;;;;;;;5059781;27;20053;-52
2023/07/14 09:29:38;;;;;;;6.57;1.80;;;;;;;;;;5090420;27;20517;-52
2023/07/14 09:32:11;;;;;;;4.90;2.00;;;;;;;;;;5093432;27;20036;-52
2023/07/14 09:34:42;;;;;;;2.53;1.40;;;;;;;;;;5096303;27;20042;-52
2023/07/14 09:37:12;;;;;;;4.05;1.58;;;;;;;;;;5099424;27;20040;-52
2023/07/14 09:39:41;;;;;;;4.70;1.67;;;;;;;;;;5091549;27;20131;-52
2023/07/14 09:42:11;;;;;;;4.13;1.50;;;;;;;;;;5095460;27;20068;-52
2023/07/14 09:44:37;;;;;;;2.97;1.65;;;;;;;;;;5099558;27;20040;-52
2023/07/14 09:47:05;;;;;;;2.60;1.23;;;;;;;;;;5101356;27;20048;-52
2023/07/14 09:49:35;;;;;;;2.25;1.35;;;;;;;;;;5100310;27;20578;-51
2023/07/14 09:52:15;;;;;;;6.28;2.03;;;;;;;;;;5100810;27;20040;-52
2023/07/14 09:55:02;;;;;;;4.57;1.42;;;;;;;;;;5102437;27;20090;-52
2023/07/14 09:57:32;;;;;;;3.90;1.25;;;;;;;;;;5106423;27;20585;-52
2023/07/14 10:00:01;;;;;;;5.13;1.50;;;;;;;;;;5103796;27;20044;-52
2023/07/14 10:02:29;;;;;;;3.90;1.50;;;;;;;;;;5101195;27;20037;-52
2023/07/14 10:04:59;;;;;;;5.07;1.58;;;;;;;;;;5103100;27;20503;-52
2023/07/14 10:07:25;;;;;;;2.72;1.60;;;;;;;;;;5099813;27;20064;-52
2023/07/14 10:10:08;;;;;;;4.45;1.92;;;;;;;;;;5105149;27;20117;-52
2023/07/14 10:12:46;;;;;;;2.65;1.17;;;;;;;;;;5103217;27;20040;-52
2023/07/14 10:15:32;;;;;;;2.75;1.30;;;;;;;;;;5102571;27;20032;-52
2023/07/14 10:18:02;;;;;;;3.70;1.40;;;;;;;;;;5102887;27;20562;-52
2023/07/14 10:20:29;;;;;;;5.18;2.00;;;;;;;;;;5099718;27;20045;-52
2023/07/14 10:22:58;;;;;;;2.22;1.35;;;;;;;;;;5100883;27;20592;-52
2023/07/14 10:25:24;;;;;;;6.15;1.48;;;;;;;;;;5101770;27;20575;-52
2023/07/14 10:28:12;;;;;;;4.47;1.60;;;;;;;;;;5104683;27;20524;-52
2023/07/14 10:30:44;;;;;;;7.63;1.80;;;;;;;;;;5102503;27;20044;-52
2023/07/14 10:33:23;;;;;;;3.03;1.67;;;;;;;;;;5103382;27;20051;-52
2023/07/14 10:35:54;;;;;;;2.97;1.52;;;;;;;;;;5104215;27;20048;-52
2023/07/14 10:38:25;;;;;;;3.47;1.65;;;;;;;;;;5085370;27;20119;-52
2023/07/14 10:41:03;;;;;;;6.80;1.90;;;;;;;;;;5104281;27;20040;-52
2023/07/14 10:43:41;;;;;;;3.10;1.45;;;;;;;;;;5100645;27;20052;-52
2023/07/14 10:46:12;;;;;;;6.07;1.73;;;;;;;;;;5102745;27;20075;-52
2023/07/14 10:48:47;;;;;;;2.67;1.45;;;;;;;;;;5102072;27;20538;-52
2023/07/14 10:51:22;;;;;;;6.65;1.65;;;;;;;;;;5102257;27;20333;-52
2023/07/14 10:53:55;;;;;;;2.88;1.48;;;;;;;;;;5097719;27;20039;-52
2023/07/14 10:56:34;;;;;;;5.20;1.70;;;;;;;;;;5088187;28;20577;-52
2023/07/14 10:59:05;;;;;;;2.08;1.30;;;;;;;;;;5100288;27;20076;-52
2023/07/14 11:01:36;;;;;;;2.58;1.23;;;;;;;;;;5102902;27;20044;-52
2023/07/14 11:04:20;;;;;;;3.58;1.95;;;;;;;;;;5082346;27;20050;-52
2023/07/14 11:06:48;;;;;;;5.00;1.50;;;;;;;;;;5100516;27;20044;-52
2023/07/14 11:09:15;;;;;;;3.03;1.48;;;;;;;;;;5102562;27;20471;-52
2023/07/14 11:11:54;;;;;;;8.30;1.55;;;;;;;;;;5083290;27;20044;-52
2023/07/14 11:14:29;;;;;;;5.07;1.88;;;;;;;;;;5101970;27;20032;-52
2023/07/14 11:17:14;;;;;;;3.35;1.60;;;;;;;;;;5101664;27;20066;-52
2023/07/14 11:19:49;;;;;;;5.05;1.80;;;;;;;;;;5102536;27;20044;-52
2023/07/14 11:22:31;;;;;;;3.67;1.60;;;;;;;;;;5099002;27;20108;-52
2023/07/14 11:24:57;;;;;;;5.03;1.50;;;;;;;;;;5101131;27;20042;-52
2023/07/14 11:27:29;;;;;;;8.55;1.63;;;;;;;;;;5099096;27;20086;-52
2023/07/14 11:29:59;;;;;;;3.30;1.60;;;;;;;;;;5101096;27;20036;-52
2023/07/14 11:32:32;;;;;;;2.67;1.70;;;;;;;;;;5103645;27;20040;-52
2023/07/14 11:35:06;;;;;;;2.30;1.20;;;;;;;;;;5101634;27;20537;-52
2023/07/14 11:37:51;;;;;;;4.95;1.45;;;;;;;;;;5103250;27;20105;-52
2023/07/14 11:40:22;;;;;;;2.63;1.50;;;;;;;;;;5101446;27;20043;-52
2023/07/14 11:42:52;;;;;;;3.03;1.55;;;;;;;;;;5101589;27;20303;-52
2023/07/14 11:45:21;;;;;;;3.42;1.90;;;;;;;;;;5101176;27;20040;-52
2023/07/14 11:47:47;;;;;;;7.57;1.73;;;;;;;;;;5102472;27;20123;-52
2023/07/14 11:50:16;;;;;;;2.33;1.48;;;;;;;;;;5083749;27;20071;-52
2023/07/14 11:52:57;;;;;;;2.63;1.40;;;;;;;;;;5101906;27;20051;-52
2023/07/14 11:55:24;;;;;;;1.70;1.20;;;;;;;;;;5102252;27;20040;-52
2023/07/14 11:58:04;;;;;;;2.45;1.60;;;;;;;;;;5101775;27;20120;-52
2023/07/14 12:00:35;;;;;;;2.67;1.35;;;;;;;;;;5100831;27;20523;-52
2023/07/14 12:03:01;;;;;;;;;;;;;;;;;;5101409;27;20089;-52
2023/07/14 12:05:30;;;;;;;3.25;1.30;;;;;;;;;;5084216;27;19924;-52
2023/07/14 12:08:03;;;;;;;6.18;1.70;;;;;;;;;;5100431;27;20048;-52
2023/07/14 12:10:38;;;;;;;7.22;1.65;;;;;;;;;;5100330;27;20518;-52
2023/07/14 12:13:14;;;;;;;2.78;1.58;;;;;;;;;;5103001;27;20086;-52
2023/07/14 12:15:44;;;;;;;2.53;1.55;;;;;;;;;;5086086;28;20507;-52
2023/07/14 12:18:28;;;;;;;6.03;1.50;;;;;;;;;;5101285;27;20118;-52
2023/07/14 12:21:13;;;;;;;6.97;1.20;;;;;;;;;;5100299;27;20048;-52
2023/07/14 12:23:39;;;;;;;3.00;1.63;;;;;;;;;;5099535;27;20051;-52
2023/07/14 12:26:17;;;;;;;2.00;1.45;;;;;;;;;;5101228;27;20044;-52
2023/07/14 12:28:43;;;;;;;1.95;1.17;;;;;;;;;;5097833;27;20525;-52
2023/07/14 12:31:14;;;;;;;2.83;1.20;;;;;;;;;;5081308;28;20044;-52
2023/07/14 12:33:40;;;;;;;6.05;1.23;;;;;;;;;;5101741;27;20078;-52
2023/07/14 12:36:06;;;;;;;2.88;1.20;;;;;;;;;;5100449;27;20540;-52
2023/07/14 12:38:33;;;;;;;2.50;1.60;;;;;;;;;;5101746;27;20040;-52
2023/07/14 12:41:01;;;;;;;3.97;1.35;;;;;;;;;;5104767;27;20139;-52
2023/07/14 12:43:30;;;;;;;2.80;1.33;;;;;;;;;;5101825;27;20612;-52
2023/07/14 12:45:57;;;;;;;4.90;1.42;;;;;;;;;;5101433;27;20094;-52
2023/07/14 12:48:27;;;;;;;2.70;2.20;;;;;;;;;;5102099;27;20134;-52
2023/07/14 12:50:54;;;;;;;7.95;1.55;;;;;;;;;;5100975;27;20435;-52
2023/07/14 12:53:20;;;;;;;3.60;1.63;;;;;;;;;;5084157;27;20055;-52
2023/07/14 12:55:46;;;;;;;2.63;1.23;;;;;;;;;;5100814;27;20131;-52
2023/07/14 12:58:30;;;;;;;3.83;1.23;;;;;;;;;;5101451;27;20036;-52
2023/07/14 13:00:57;;;;;;;2.72;1.50;;;;;;;;;;5099550;27;20128;-52
2023/07/14 13:03:26;;;;;;;3.50;1.63;;;;;;;;;;5095340;27;22256;-52
2023/07/14 13:05:52;;;;;;;1.98;1.02;;;;;;;;;;5095089;27;20040;-52
2023/07/14 13:08:20;;;;;;;4.18;1.35;;;;;;;;;;5087670;27;20036;-52
2023/07/14 13:10:47;;;;;;;4.45;1.30;;;;;;;;;;5105291;27;20048;-52
2023/07/14 13:13:20;;;;;;;3.08;1.40;;;;;;;;;;5104727;27;20069;-52
2023/07/14 13:15:48;;;;;;;4.70;1.35;;;;;;;;;;5104939;27;20040;-52
2023/07/14 13:18:26;;;;;;;3.60;1.30;;;;;;;;;;5106512;27;20617;-52
2023/07/14 13:20:54;;;;;;;2.45;1.40;;;;;;;;;;5104507;27;20547;-52
2023/07/14 13:23:22;;;;;;;5.68;2.63;;;;;;;;;;5104938;27;20094;-52
2023/07/14 13:26:06;;;;;;;3.28;1.27;;;;;;;;;;5105118;27;20235;-52
2023/07/14 13:28:38;;;;;;;4.70;1.95;;;;;;;;;;5105954;27;20040;-52
2023/07/14 13:31:10;;;;;;;5.68;1.55;;;;;;;;;;5103114;27;20176;-52
2023/07/14 13:33:37;;;;;;;2.95;1.25;;;;;;;;;;5104985;27;20122;-52
2023/07/14 13:36:07;;;;;;;1.85;1.40;;;;;;;;;;5105934;27;20040;-52
2023/07/14 13:38:33;;;;;;;3.65;1.23;;;;;;;;;;5087156;27;20051;-52
2023/07/14 13:41:07;;;;;;;4.55;1.55;;;;;;;;;;5101341;27;20043;-52
2023/07/14 13:43:33;;;;;;;5.03;1.30;;;;;;;;;;5101874;27;20047;-52
2023/07/14 13:46:06;;;;;;;3.03;1.30;;;;;;;;;;5105198;27;20044;-52
2023/07/14 13:48:34;;;;;;;4.55;1.63;;;;;;;;;;5106404;27;20537;-52
2023/07/14 13:51:00;;;;;;;4.00;1.35;;;;;;;;;;5105166;27;20047;-52
2023/07/14 13:53:30;;;;;;;3.53;1.20;;;;;;;;;;5104084;27;20028;-52
2023/07/14 13:55:56;;;;;;;2.35;1.42;;;;;;;;;;5087988;28;20043;-52
2023/07/14 13:58:22;;;;;;;7.10;1.20;;;;;;;;;;5106419;27;20043;-52
2023/07/14 14:00:48;;;;;;;2.35;1.75;;;;;;;;;;5104558;27;20492;-52
2023/07/14 14:03:16;;;;;;;3.40;1.42;;;;;;;;;;5102507;27;20047;-53
2023/07/14 14:05:45;;;;;;;2.15;1.30;;;;;;;;;;5103828;27;20198;-52
2023/07/14 14:08:15;;;;;;;4.07;1.58;;;;;;;;;;5101318;27;20150;-52
2023/07/14 14:10:41;;;;;;;3.92;1.40;;;;;;;;;;5102486;27;20125;-52
2023/07/14 14:13:07;;;;;;;1.85;1.20;;;;;;;;;;5103550;27;20036;-52
2023/07/14 14:15:36;;;;;;;3.38;1.50;;;;;;;;;;5103113;27;20138;-52
2023/07/14 14:18:04;;;;;;;5.00;2.00;;;;;;;;;;5103280;27;20032;-52
2023/07/14 14:20:33;;;;;;;2.80;1.50;;;;;;;;;;5083692;27;20048;-52
2023/07/14 14:23:05;;;;;;;4.25;1.42;;;;;;;;;;5100876;27;20119;-53
2023/07/14 14:25:32;;;;;;;2.63;1.42;;;;;;;;;;5100931;27;20040;-52
2023/07/14 14:27:58;;;;;;;4.80;1.63;;;;;;;;;;5104748;27;20047;-53
2023/07/14 14:30:26;;;;;;;3.97;1.38;;;;;;;;;;5099882;27;20056;-52
2023/07/14 14:32:58;;;;;;;6.03;1.25;;;;;;;;;;5103687;27;20523;-52
2023/07/14 14:35:31;;;;;;;5.40;1.50;;;;;;;;;;5097027;27;20071;-52
2023/07/14 14:37:58;;;;;;;3.33;1.17;;;;;;;;;;5103680;27;20115;-52
2023/07/14 14:40:29;;;;;;;2.03;1.20;;;;;;;;;;5101196;27;20046;-52
2023/07/14 14:43:06;;;;;;;4.28;1.20;;;;;;;;;;5102772;27;20044;-52
2023/07/14 14:45:32;;;;;;;3.17;1.45;;;;;;;;;;5100920;27;20094;-52
2023/07/14 14:47:58;;;;;;;2.92;0.90;;;;;;;;;;5101894;27;20929;-52
2023/07/14 14:50:24;;;;;;;6.68;2.13;;;;;;;;;;5100146;27;20582;-51
2023/07/14 14:52:51;;;;;;;2.78;1.23;;;;;;;;;;5103605;27;20048;-51